createdAt,value
2022-11-03T00:01:39.864Z,6.80
2022-11-03T00:04:12.409Z,6.87
2022-11-03T00:06:42.714Z,6.03
2022-11-03T00:09:13.445Z,5.73
2022-11-03T00:11:44.463Z,5.13
2022-11-03T00:14:14.882Z,5.77
2022-11-03T00:16:44.720Z,5.80
2022-11-03T00:19:17.597Z,5.73
2022-11-03T00:21:47.357Z,6.00
2022-11-03T00:24:16.481Z,6.07
2022-11-03T00:26:45.750Z,5.43
2022-11-03T00:29:16.876Z,5.73
2022-11-03T00:31:46.881Z,5.07
2022-11-03T00:34:17.363Z,5.63
2022-11-03T00:36:46.960Z,5.10
2022-11-03T00:39:16.023Z,5.47
2022-11-03T00:41:45.240Z,4.90
2022-11-03T00:44:14.360Z,5.40
2022-11-03T00:46:43.448Z,4.97
2022-11-03T00:49:12.462Z,5.07
2022-11-03T00:51:42.900Z,5.93
2022-11-03T00:54:12.273Z,5.97
2022-11-03T00:56:44.553Z,5.23
2022-11-03T00:59:13.767Z,5.47
2022-11-03T01:01:47.060Z,4.87
2022-11-03T01:04:35.182Z,4.43
2022-11-03T01:07:07.875Z,4.67
2022-11-03T01:09:39.204Z,4.37
2022-11-03T01:12:10.509Z,4.93
2022-11-03T01:14:41.883Z,5.10
2022-11-03T01:17:12.798Z,5.53
2022-11-03T01:19:41.843Z,5.07
2022-11-03T01:22:12.852Z,5.20
2022-11-03T01:24:42.741Z,4.43
2022-11-03T01:27:13.988Z,4.70
2022-11-03T01:29:43.100Z,4.53
2022-11-03T01:32:12.966Z,4.70
2022-11-03T01:34:42.190Z,5.13
2022-11-03T01:37:12.681Z,4.53
2022-11-03T01:39:41.844Z,4.50
2022-11-03T01:42:14.548Z,4.40
2022-11-03T01:44:46.761Z,3.80
2022-11-03T01:47:22.775Z,4.10
2022-11-03T01:49:56.939Z,4.63
2022-11-03T01:52:31.121Z,4.03
2022-11-03T01:55:03.693Z,4.60
2022-11-03T01:57:38.884Z,4.13
2022-11-03T02:00:09.824Z,4.60
2022-11-03T02:02:42.109Z,5.10
2022-11-03T02:05:13.375Z,4.00
2022-11-03T02:07:51.248Z,4.87
2022-11-03T02:10:20.526Z,4.50
2022-11-03T02:12:50.449Z,4.53
2022-11-03T02:15:21.818Z,5.07
2022-11-03T02:17:53.717Z,5.10
2022-11-03T02:20:25.948Z,5.17
2022-11-03T02:23:22.908Z,5.20
2022-11-03T02:25:55.894Z,5.40
2022-11-03T02:28:28.520Z,4.90
2022-11-03T02:31:04.876Z,5.70
2022-11-03T02:33:43.290Z,5.20
2022-11-03T02:36:18.598Z,6.17
2022-11-03T02:38:51.653Z,5.47
2022-11-03T02:41:24.709Z,6.23
2022-11-03T02:43:56.204Z,6.10
2022-11-03T02:46:27.798Z,6.40
2022-11-03T02:48:57.554Z,6.70
2022-11-03T02:51:27.141Z,6.23
2022-11-03T02:54:06.024Z,6.90
2022-11-03T02:56:43.244Z,6.87
2022-11-03T02:59:16.664Z,6.90
2022-11-03T03:01:52.942Z,6.77
2022-11-03T03:04:28.503Z,7.47
2022-11-03T03:07:03.228Z,7.07
2022-11-03T03:09:37.560Z,7.50
2022-11-03T03:12:10.259Z,7.97
2022-11-03T03:14:42.071Z,7.07
2022-11-03T03:17:16.001Z,7.53
2022-11-03T03:19:51.349Z,7.77
2022-11-03T03:22:26.378Z,7.53
2022-11-03T03:25:02.381Z,6.93
2022-11-03T03:27:35.608Z,7.70
2022-11-03T03:30:07.417Z,7.87
2022-11-03T03:32:39.631Z,7.47
2022-11-03T03:35:13.197Z,6.93
2022-11-03T03:37:47.935Z,7.90
2022-11-03T03:40:23.033Z,7.67
2022-11-03T03:42:55.685Z,8.10
2022-11-03T03:45:27.575Z,7.30
2022-11-03T03:47:57.925Z,7.53
2022-11-03T03:50:30.960Z,7.67
2022-11-03T03:53:03.275Z,8.20
2022-11-03T03:55:37.644Z,7.27
2022-11-03T03:58:09.473Z,8.63
2022-11-03T04:00:40.325Z,7.47
2022-11-03T04:03:18.053Z,8.17
2022-11-03T04:05:48.929Z,8.10
2022-11-03T04:08:19.038Z,8.07
2022-11-03T04:11:02.335Z,8.60
2022-11-03T04:13:50.860Z,7.67
2022-11-03T04:16:37.275Z,7.60
2022-11-03T04:19:23.778Z,7.00
2022-11-03T04:22:10.327Z,7.80
2022-11-03T04:24:39.360Z,7.67
2022-11-03T04:27:28.116Z,8.10
2022-11-03T04:30:03.503Z,7.83
2022-11-03T04:32:32.925Z,7.63
2022-11-03T04:35:02.433Z,7.40
2022-11-03T04:37:31.578Z,8.27
2022-11-03T04:40:01.957Z,9.20
2022-11-03T04:42:34.545Z,8.70
2022-11-03T04:45:18.350Z,7.60
2022-11-03T04:47:47.535Z,7.97
2022-11-03T04:50:20.766Z,8.27
2022-11-03T04:52:50.766Z,8.33
2022-11-03T04:55:21.976Z,9.40
2022-11-03T04:57:56.328Z,8.83
2022-11-03T05:00:27.033Z,8.43
2022-11-03T05:02:56.685Z,8.37
2022-11-03T05:05:27.920Z,8.50
2022-11-03T05:08:00.084Z,8.80
2022-11-03T05:10:31.268Z,8.20
2022-11-03T05:13:02.468Z,8.93
2022-11-03T05:15:37.037Z,8.57
2022-11-03T05:18:18.316Z,8.33
2022-11-03T05:20:51.978Z,8.27
2022-11-03T05:23:22.862Z,8.60
2022-11-03T05:25:54.077Z,9.03
2022-11-03T05:28:29.686Z,8.67
2022-11-03T05:31:00.197Z,8.70
2022-11-03T05:33:31.291Z,9.23
2022-11-03T05:36:03.695Z,7.90
2022-11-03T05:38:34.368Z,8.23
2022-11-03T05:41:03.757Z,9.20
2022-11-03T05:43:32.989Z,8.27
2022-11-03T05:48:38.525Z,9.30
2022-11-03T05:51:21.007Z,8.57
2022-11-03T05:53:53.976Z,8.37
2022-11-03T05:56:25.583Z,8.67
2022-11-03T05:58:57.053Z,8.07
2022-11-03T06:01:32.145Z,8.63
2022-11-03T06:04:02.933Z,8.37
2022-11-03T06:06:36.703Z,8.27
2022-11-03T06:09:18.056Z,8.60
2022-11-03T06:11:47.960Z,8.10
2022-11-03T06:14:24.354Z,9.20
2022-11-03T06:16:58.553Z,8.13
2022-11-03T06:19:31.666Z,7.87
2022-11-03T06:22:04.460Z,8.80
2022-11-03T06:24:35.282Z,8.00
2022-11-03T06:27:04.951Z,8.10
2022-11-03T06:29:36.012Z,8.40
2022-11-03T06:32:14.044Z,8.73
2022-11-03T06:34:46.082Z,8.47
2022-11-03T06:37:27.153Z,7.93
2022-11-03T06:40:02.141Z,8.80
2022-11-03T06:42:34.961Z,8.50
2022-11-03T06:45:14.522Z,7.83
2022-11-03T06:47:45.514Z,7.13
2022-11-03T06:50:24.452Z,7.17
2022-11-03T06:52:56.153Z,7.47
2022-11-03T06:55:27.852Z,7.70
2022-11-03T06:58:00.782Z,7.90
2022-11-03T07:00:34.582Z,7.20
2022-11-03T07:03:10.619Z,6.93
2022-11-03T07:05:40.863Z,6.70
2022-11-03T07:08:24.243Z,6.67
2022-11-03T07:11:02.268Z,6.60
2022-11-03T07:13:35.032Z,6.13
2022-11-03T07:16:04.792Z,6.10
2022-11-03T07:18:41.214Z,6.60
2022-11-03T07:21:31.216Z,6.67
2022-11-03T07:24:04.184Z,6.20
2022-11-03T07:26:35.473Z,6.07
2022-11-03T07:29:05.023Z,5.73
2022-11-03T07:31:35.225Z,5.70
2022-11-03T07:34:13.858Z,5.55
2022-11-03T07:36:45.684Z,5.88
2022-11-03T07:39:20.192Z,5.75
2022-11-03T07:41:50.801Z,6.10
2022-11-03T07:44:22.441Z,5.63
2022-11-03T07:46:52.716Z,5.57
2022-11-03T07:49:29.842Z,5.45
2022-11-03T07:52:01.362Z,5.80
2022-11-03T07:54:35.216Z,5.70
2022-11-03T07:57:13.295Z,5.50
2022-11-03T07:59:45.947Z,5.82
2022-11-03T08:02:27.972Z,5.53
2022-11-03T08:04:59.021Z,7.07
2022-11-03T08:07:29.704Z,6.30
2022-11-03T08:09:59.550Z,6.07
2022-11-03T08:12:29.545Z,5.88
2022-11-03T08:14:59.123Z,5.97
2022-11-03T08:17:29.092Z,6.43
2022-11-03T08:20:00.726Z,6.13
2022-11-03T08:22:30.434Z,5.43
2022-11-03T08:25:00.494Z,6.38
2022-11-03T08:27:30.225Z,6.05
2022-11-03T08:29:59.682Z,5.20
2022-11-03T08:32:29.625Z,4.68
2022-11-03T08:35:00.884Z,5.60
2022-11-03T08:37:30.775Z,5.30
2022-11-03T08:40:00.664Z,5.47
2022-11-03T08:42:30.523Z,5.32
2022-11-03T08:45:03.897Z,5.07
2022-11-03T08:47:33.835Z,5.50
2022-11-03T08:50:04.542Z,5.90
2022-11-03T08:52:34.257Z,6.10
2022-11-03T08:55:03.897Z,9.45
2022-11-03T08:57:33.298Z,6.93
2022-11-03T09:00:02.593Z,6.82
2022-11-03T09:02:32.551Z,6.07
2022-11-03T09:05:08.329Z,7.35
2022-11-03T09:10:33.276Z,4.88
2022-11-03T09:13:06.018Z,5.40
2022-11-03T09:15:39.253Z,5.00
2022-11-03T09:18:08.988Z,4.88
2022-11-03T09:20:39.912Z,5.13
2022-11-03T09:23:09.184Z,4.57
2022-11-03T09:25:39.024Z,4.38
2022-11-03T09:28:09.292Z,4.38
2022-11-03T09:30:38.944Z,5.00
2022-11-03T09:33:17.230Z,5.10
2022-11-03T09:35:48.387Z,4.38
2022-11-03T09:38:17.922Z,4.93
2022-11-03T09:43:18.661Z,4.10
2022-11-03T09:45:48.094Z,3.95
2022-11-03T09:48:17.943Z,3.83
2022-11-03T09:50:53.312Z,4.03
2022-11-03T09:53:25.693Z,4.22
2022-11-03T09:55:57.112Z,3.92
2022-11-03T09:58:27.544Z,4.15
2022-11-03T10:00:59.207Z,4.22
2022-11-03T10:03:29.446Z,4.10
2022-11-03T10:06:00.862Z,4.50
2022-11-03T10:08:33.524Z,4.60
2022-11-03T10:11:03.647Z,4.13
2022-11-03T10:13:38.225Z,4.68
2022-11-03T10:16:09.569Z,4.70
2022-11-03T10:18:39.349Z,4.50
2022-11-03T10:21:20.556Z,4.97
2022-11-03T10:23:50.985Z,4.65
2022-11-03T10:26:21.657Z,4.63
2022-11-03T10:29:10.124Z,4.18
2022-11-03T10:31:40.583Z,4.05
2022-11-03T10:34:27.746Z,4.40
2022-11-03T10:37:25.290Z,4.57
2022-11-03T10:39:56.036Z,4.60
2022-11-03T10:42:31.988Z,4.50
2022-11-03T10:45:18.253Z,4.72
2022-11-03T10:48:01.760Z,3.88
2022-11-03T10:50:31.727Z,4.20
2022-11-03T10:53:03.949Z,3.80
2022-11-03T10:55:33.391Z,3.97
2022-11-03T10:58:02.640Z,3.67
2022-11-03T11:00:32.106Z,3.22
2022-11-03T11:03:02.396Z,3.00
2022-11-03T11:05:32.006Z,3.40
2022-11-03T11:08:03.089Z,3.40
2022-11-03T11:10:33.177Z,3.80
2022-11-03T11:13:07.956Z,3.40
2022-11-03T11:15:40.534Z,3.22
2022-11-03T11:18:10.135Z,2.80
2022-11-03T11:20:41.672Z,2.95
2022-11-03T11:23:52.750Z,2.80
2022-11-03T11:26:46.127Z,2.75
2022-11-03T11:29:45.618Z,2.90
2022-11-03T11:32:48.190Z,3.30
2022-11-03T11:35:20.319Z,3.10
2022-11-03T11:37:49.979Z,2.60
2022-11-03T11:40:53.848Z,2.85
2022-11-03T11:43:31.117Z,2.80
2022-11-03T11:46:41.737Z,3.58
2022-11-03T11:49:29.088Z,2.80
2022-11-03T11:52:03.822Z,2.42
2022-11-03T11:54:33.500Z,3.13
2022-11-03T11:57:03.018Z,2.75
2022-11-03T11:59:33.871Z,2.47
2022-11-03T12:02:04.787Z,2.47
2022-11-03T12:04:34.930Z,2.25
2022-11-03T12:07:04.121Z,2.70
2022-11-03T12:09:34.106Z,4.05
2022-11-03T12:12:08.680Z,2.38
2022-11-03T12:14:40.386Z,2.22
2022-11-03T12:17:34.819Z,2.97
2022-11-03T12:20:36.959Z,2.38
2022-11-03T12:23:06.243Z,2.90
2022-11-03T12:25:37.640Z,2.60
2022-11-03T12:28:07.004Z,2.90
2022-11-03T12:30:40.215Z,2.47
2022-11-03T12:33:11.044Z,2.60
2022-11-03T12:35:40.405Z,2.60
2022-11-03T12:38:10.073Z,2.45
2022-11-03T12:40:39.375Z,2.20
2022-11-03T12:43:09.591Z,3.00
2022-11-03T12:45:41.673Z,2.67
2022-11-03T12:48:11.308Z,2.65
2022-11-03T12:50:41.046Z,2.53
2022-11-03T12:53:10.936Z,2.92
2022-11-03T12:55:43.669Z,2.53
2022-11-03T12:58:14.357Z,2.70
2022-11-03T13:00:49.943Z,2.92
2022-11-03T13:03:24.308Z,2.50
2022-11-03T13:05:53.467Z,2.63
2022-11-03T13:08:23.425Z,2.30
2022-11-03T13:10:52.868Z,2.20
2022-11-03T13:13:22.186Z,2.55
2022-11-03T13:15:53.336Z,2.30
2022-11-03T13:18:22.736Z,2.55
2022-11-03T13:20:53.587Z,2.53
2022-11-03T13:23:23.369Z,2.95
2022-11-03T13:25:52.735Z,2.42
2022-11-03T13:28:22.024Z,2.90
2022-11-03T13:30:52.676Z,2.88
2022-11-03T13:33:21.897Z,2.45
2022-11-03T13:35:51.199Z,2.53
2022-11-03T13:38:21.595Z,2.58
2022-11-03T13:40:57.795Z,2.50
2022-11-03T13:43:29.276Z,2.38
2022-11-03T13:46:02.801Z,2.63
2022-11-03T13:51:21.887Z,2.70
2022-11-03T13:59:30.002Z,3.10
2022-11-03T14:04:51.238Z,2.47
2022-11-03T14:07:20.625Z,2.42
2022-11-03T14:09:50.032Z,2.55
2022-11-03T14:12:36.155Z,2.60
2022-11-03T14:15:09.124Z,2.75
2022-11-03T14:17:40.826Z,2.53
2022-11-03T14:20:13.408Z,2.72
2022-11-03T14:22:42.926Z,2.80
2022-11-03T14:25:12.130Z,2.70
2022-11-03T14:27:41.869Z,2.60
2022-11-03T14:30:13.566Z,2.60
2022-11-03T14:32:44.535Z,2.55
2022-11-03T14:35:14.076Z,2.80
2022-11-03T14:37:43.325Z,2.55
2022-11-03T14:40:33.664Z,2.60
2022-11-03T14:43:01.876Z,3.13
2022-11-03T14:45:35.833Z,2.73
2022-11-03T14:48:09.608Z,2.80
2022-11-03T14:50:39.056Z,3.45
2022-11-03T14:53:08.362Z,3.33
2022-11-03T14:55:38.384Z,3.20
2022-11-03T14:58:09.124Z,2.67
2022-11-03T15:00:39.154Z,3.10
2022-11-03T15:03:10.206Z,2.83
2022-11-03T15:05:45.508Z,3.87
2022-11-03T15:08:16.214Z,3.47
2022-11-03T15:10:46.185Z,3.23
2022-11-03T15:13:16.396Z,3.03
2022-11-03T15:15:46.543Z,3.47
2022-11-03T15:18:18.633Z,3.70
2022-11-03T15:20:48.376Z,4.43
2022-11-03T15:26:07.716Z,4.50
2022-11-03T15:28:37.336Z,4.47
2022-11-03T15:31:07.246Z,4.67
2022-11-03T15:33:38.235Z,5.67
2022-11-03T15:36:09.417Z,6.23
2022-11-03T15:38:38.946Z,5.33
2022-11-03T15:41:17.725Z,7.67
2022-11-03T15:43:49.228Z,8.83
2022-11-03T15:46:20.278Z,8.80
2022-11-03T15:48:51.258Z,10.03
2022-11-03T15:51:20.539Z,11.30
2022-11-03T15:53:54.932Z,15.40
2022-11-03T15:56:26.267Z,14.27
2022-11-03T15:58:55.899Z,18.60
2022-11-03T16:01:26.194Z,13.80
2022-11-03T16:03:57.456Z,14.50
2022-11-03T16:06:46.695Z,15.00
2022-11-03T16:09:16.198Z,12.73
2022-11-03T16:11:45.407Z,12.23
2022-11-03T16:14:15.396Z,11.00
2022-11-03T16:16:45.346Z,12.43
2022-11-03T16:19:16.727Z,10.90
2022-11-03T16:21:46.279Z,9.40
2022-11-03T16:24:15.595Z,8.77
2022-11-03T16:26:45.367Z,7.50
2022-11-03T16:29:14.759Z,7.67
2022-11-03T16:31:44.049Z,8.90
2022-11-03T16:34:13.596Z,9.80
2022-11-03T16:36:44.777Z,9.30
2022-11-03T16:39:14.261Z,13.07
2022-11-03T16:41:43.676Z,13.90
2022-11-03T16:44:13.208Z,16.77
2022-11-03T16:46:42.737Z,18.13
2022-11-03T16:49:12.213Z,16.90
2022-11-03T16:51:41.797Z,12.43
2022-11-03T16:54:12.596Z,16.17
2022-11-03T16:56:44.709Z,14.60
2022-11-03T16:59:14.668Z,11.10
2022-11-03T17:01:44.110Z,10.17
2022-11-03T17:04:13.497Z,9.77
2022-11-03T17:06:42.896Z,10.23
2022-11-03T17:09:14.747Z,10.30
2022-11-03T17:11:44.147Z,14.37
2022-11-03T17:14:14.711Z,14.27
2022-11-03T17:16:46.860Z,12.17
2022-11-03T17:19:17.161Z,11.60
2022-11-03T17:21:46.617Z,10.30
2022-11-03T17:24:17.247Z,10.23
2022-11-03T17:26:57.410Z,11.90
2022-11-03T17:29:34.857Z,13.23
2022-11-03T17:32:06.188Z,13.60
2022-11-03T17:34:35.656Z,14.53
2022-11-03T17:37:05.306Z,15.03
2022-11-03T17:39:39.498Z,14.20
2022-11-03T17:42:20.096Z,14.30
2022-11-03T17:44:51.432Z,13.00
2022-11-03T17:47:21.517Z,12.67
2022-11-03T17:49:54.967Z,12.77
2022-11-03T17:52:28.827Z,11.90
2022-11-03T17:55:01.386Z,13.50
2022-11-03T17:57:31.226Z,12.60
2022-11-03T18:00:01.946Z,14.17
2022-11-03T18:02:41.905Z,13.83
2022-11-03T18:05:22.908Z,13.83
2022-11-03T18:07:53.396Z,14.30
2022-11-03T18:10:28.014Z,14.53
2022-11-03T18:13:21.512Z,15.27
2022-11-03T18:15:54.376Z,14.40
2022-11-03T18:18:28.308Z,14.93
2022-11-03T18:20:58.829Z,13.97
2022-11-03T18:23:31.626Z,14.20
2022-11-03T18:26:04.437Z,13.40
2022-11-03T18:28:33.847Z,14.10
2022-11-03T18:31:05.027Z,13.30
2022-11-03T18:33:37.788Z,14.73
2022-11-03T18:36:09.084Z,14.67
2022-11-03T18:38:42.104Z,14.80
2022-11-03T18:41:33.308Z,14.97
2022-11-03T18:44:03.716Z,14.73
2022-11-03T18:46:34.796Z,15.53
2022-11-03T18:49:04.937Z,14.87
2022-11-03T18:51:35.429Z,15.53
2022-11-03T18:54:11.585Z,15.80
2022-11-03T18:56:43.393Z,16.13
2022-11-03T18:59:22.214Z,16.10
2022-11-03T19:01:52.530Z,16.57
2022-11-03T19:04:28.167Z,17.33
2022-11-03T19:07:02.130Z,17.80
2022-11-03T19:09:32.149Z,16.93
2022-11-03T19:12:03.950Z,17.43
2022-11-03T19:14:38.327Z,17.17
2022-11-03T19:17:28.709Z,18.20
2022-11-03T19:19:59.445Z,17.27
2022-11-03T19:22:29.516Z,18.20
2022-11-03T19:24:59.780Z,17.67
2022-11-03T19:27:33.303Z,19.07
2022-11-03T19:30:05.907Z,17.97
2022-11-03T19:32:40.042Z,18.50
2022-11-03T19:35:21.738Z,18.93
2022-11-03T19:37:57.346Z,17.93
2022-11-03T19:40:27.528Z,18.10
2022-11-03T19:42:58.825Z,17.53
2022-11-03T19:45:29.733Z,18.27
2022-11-03T19:50:53.852Z,18.13
2022-11-03T19:53:28.108Z,19.33
2022-11-03T19:55:59.505Z,18.20
2022-11-03T19:58:31.737Z,18.73
2022-11-03T20:01:07.246Z,19.03
2022-11-03T20:03:38.553Z,19.33
2022-11-03T20:06:12.175Z,19.77
2022-11-03T20:08:45.854Z,20.27
2022-11-03T20:11:16.523Z,19.53
2022-11-03T20:13:47.905Z,20.83
2022-11-03T20:16:20.003Z,19.77
2022-11-03T20:18:50.649Z,20.90
2022-11-03T20:21:25.553Z,20.03
2022-11-03T20:23:57.386Z,21.00
2022-11-03T20:26:29.420Z,18.80
2022-11-03T20:29:02.516Z,18.97
2022-11-03T20:31:33.036Z,20.17
2022-11-03T20:34:02.423Z,19.63
2022-11-03T20:36:33.956Z,19.53
2022-11-03T20:39:11.493Z,20.67
2022-11-03T20:41:47.281Z,20.77
2022-11-03T20:44:19.063Z,19.77
2022-11-03T20:46:48.972Z,18.30
2022-11-03T20:49:18.727Z,19.70
2022-11-03T20:51:48.704Z,18.87
2022-11-03T20:54:19.847Z,19.10
2022-11-03T20:56:50.230Z,19.40
2022-11-03T20:59:25.074Z,20.43
2022-11-03T21:01:55.014Z,21.23
2022-11-03T21:04:24.363Z,19.60
2022-11-03T21:06:54.515Z,20.13
2022-11-03T21:09:24.553Z,20.17
2022-11-03T21:11:54.770Z,20.73
2022-11-03T21:14:27.706Z,20.70
2022-11-03T21:17:14.880Z,19.10
2022-11-03T21:19:58.109Z,19.40
2022-11-03T21:25:24.115Z,19.63
2022-11-03T21:27:55.222Z,20.23
2022-11-03T21:30:25.846Z,21.13
2022-11-03T21:32:55.384Z,20.53
2022-11-03T21:35:24.944Z,19.23
2022-11-03T21:37:54.368Z,18.47
2022-11-03T21:40:34.325Z,20.37
2022-11-03T21:43:21.273Z,19.80
2022-11-03T21:45:52.492Z,21.27
2022-11-03T21:48:39.325Z,20.47
2022-11-03T21:51:27.106Z,21.73
2022-11-03T21:53:56.435Z,21.57
2022-11-03T21:56:26.925Z,20.57
2022-11-03T21:58:56.479Z,19.07
2022-11-03T22:01:27.398Z,19.60
2022-11-03T22:03:58.548Z,20.07
2022-11-03T22:06:28.489Z,18.50
2022-11-03T22:08:57.918Z,18.93
2022-11-03T22:11:27.128Z,19.50
2022-11-03T22:13:58.542Z,18.87
2022-11-03T22:16:37.927Z,17.17
2022-11-03T22:19:26.275Z,17.70
2022-11-03T22:22:12.947Z,17.90
2022-11-03T22:24:59.765Z,17.53
2022-11-03T22:27:30.408Z,17.07
2022-11-03T22:30:17.059Z,17.73
2022-11-03T22:32:52.733Z,17.03
2022-11-03T22:35:45.526Z,17.83
2022-11-03T22:38:16.765Z,17.40
2022-11-03T22:41:06.170Z,17.33
2022-11-03T22:43:52.843Z,16.63
2022-11-03T22:46:21.918Z,22.27
2022-11-03T22:48:52.697Z,17.50
2022-11-03T22:51:21.951Z,16.10
2022-11-03T22:54:08.913Z,14.57
2022-11-03T22:56:38.752Z,14.77
2022-11-03T22:59:08.624Z,14.03
2022-11-03T23:01:38.345Z,14.10
2022-11-03T23:04:09.698Z,15.33
2022-11-03T23:06:41.302Z,14.57
2022-11-03T23:09:12.329Z,14.73
2022-11-03T23:11:41.560Z,15.03
2022-11-03T23:14:12.443Z,15.17
2022-11-03T23:16:43.153Z,14.53
2022-11-03T23:19:32.304Z,14.33
2022-11-03T23:22:02.635Z,14.97
2022-11-03T23:24:49.458Z,14.80
2022-11-03T23:27:18.542Z,13.70
2022-11-03T23:29:47.646Z,14.20
2022-11-03T23:32:16.881Z,13.90
2022-11-03T23:34:47.362Z,14.00
2022-11-03T23:37:16.530Z,13.87
2022-11-03T23:39:45.542Z,14.53
2022-11-03T23:42:14.666Z,14.67
2022-11-03T23:45:01.358Z,13.33
2022-11-03T23:47:48.306Z,13.30
2022-11-03T23:50:18.942Z,12.60
2022-11-03T23:52:48.269Z,13.53
2022-11-03T23:55:17.497Z,12.53
2022-11-03T23:58:03.992Z,13.63
